WZZ64LB LPPT-LHBP
Flight info
| Callsign | WZZ64LB |
|---|---|
| Flight time | 3h 4m |
| Altitude | 34000 |
| Route | IXIDA DCT TOSDI DCT ZMR DCT NEA DCT DGO DCT LPA DCT GOSVI DCT TOPTU DCT TOU DCT GAI DCT MEN DCT NINUN DCT LATAM DCT ETREK DCT LTP DCT SOPLO DCT OMASI DCT KINNI DCT SOSAL DCT KORED/N0456F350 DCT INTEG DCT BIRGI DCT ABLOM DCT XENAK/N0424F230 L175 ANEXA |
| Aircraft | A321/M-SDE3FGHIRWY/LB1 |
Departure
| Time | 2026-05-03 21:11 |
|---|---|
| Airport | Lisbon Humberto Delgado Airport (LPPT) |
Arrival
| Time | 2026-05-04 00:15 |
|---|---|
| Airport | Budapest Liszt Ferenc International Airport (LHBP) |
| Time | Latitude | Longitude | Altitude | Speed | Heading |
|---|---|---|---|---|---|
| 2026-05-03 21:02 | 38.76494 | -9.13374 | 351 ft | 0 kts | 73° |
| 2026-05-03 21:03 | 38.76493 | -9.13381 | 360 ft | 4 kts | 72° |
| 2026-05-03 21:03 | 38.76485 | -9.13411 | 362 ft | 3 kts | 60° |
| 2026-05-03 21:03 | 38.76477 | -9.13424 | 362 ft | 2 kts | 11° |
| 2026-05-03 21:04 | 38.76466 | -9.13425 | 360 ft | 2 kts | 349° |
| 2026-05-03 21:04 | 38.76455 | -9.13422 | 360 ft | 2 kts | 345° |
| 2026-05-03 21:04 | 38.76448 | -9.13420 | 358 ft | 0 kts | 345° |
| 2026-05-03 21:07 | 38.76467 | -9.13426 | 360 ft | 6 kts | 344° |
| 2026-05-03 21:07 | 38.76529 | -9.13449 | 353 ft | 13 kts | 344° |
| 2026-05-03 21:08 | 38.76623 | -9.13488 | 356 ft | 14 kts | 327° |
| 2026-05-03 21:08 | 38.76635 | -9.13616 | 351 ft | 16 kts | 261° |
| 2026-05-03 21:08 | 38.76611 | -9.13762 | 355 ft | 17 kts | 257° |
| 2026-05-03 21:08 | 38.76587 | -9.13910 | 351 ft | 17 kts | 258° |
| 2026-05-03 21:09 | 38.76542 | -9.14038 | 356 ft | 14 kts | 230° |
| 2026-05-03 21:09 | 38.76497 | -9.14147 | 359 ft | 14 kts | 266° |
| 2026-05-03 21:09 | 38.76526 | -9.14268 | 353 ft | 14 kts | 293° |
| 2026-05-03 21:09 | 38.76576 | -9.14382 | 355 ft | 15 kts | 321° |
| 2026-05-03 21:10 | 38.76744 | -9.14336 | 355 ft | 50 kts | 22° |
| 2026-05-03 21:10 | 38.77275 | -9.14051 | 358 ft | 114 kts | 22° |
| 2026-05-03 21:10 | 38.78178 | -9.13569 | 360 ft | 164 kts | 22° |
| 2026-05-03 21:10 | 38.79319 | -9.12954 | 600 ft | 186 kts | 23° |
| 2026-05-03 21:11 | 38.80562 | -9.12269 | 951 ft | 204 kts | 22° |
| 2026-05-03 21:11 | 38.81909 | -9.11455 | 1248 ft | 226 kts | 27° |
| 2026-05-03 21:11 | 38.83326 | -9.10374 | 1506 ft | 247 kts | 29° |
| 2026-05-03 21:11 | 38.84813 | -9.09228 | 2212 ft | 251 kts | 29° |
| 2026-05-03 21:12 | 38.86320 | -9.08062 | 2965 ft | 254 kts | 28° |
| 2026-05-03 21:12 | 38.87838 | -9.06885 | 3686 ft | 257 kts | 28° |
| 2026-05-03 21:12 | 38.89359 | -9.05628 | 4337 ft | 264 kts | 38° |
| 2026-05-03 21:12 | 38.90713 | -9.03979 | 4969 ft | 271 kts | 42° |
| 2026-05-03 21:13 | 38.92070 | -9.02266 | 5602 ft | 276 kts | 42° |
| 2026-05-03 21:13 | 38.93453 | -9.00513 | 6248 ft | 281 kts | 43° |
| 2026-05-03 21:13 | 38.94874 | -8.98713 | 6879 ft | 286 kts | 43° |
| 2026-05-03 21:13 | 38.96297 | -8.96912 | 7515 ft | 289 kts | 43° |
| 2026-05-03 21:14 | 38.97744 | -8.95079 | 8153 ft | 293 kts | 43° |
| 2026-05-03 21:14 | 38.99207 | -8.93227 | 8807 ft | 297 kts | 43° |
| 2026-05-03 21:14 | 39.00689 | -8.91350 | 9446 ft | 301 kts | 43° |
| 2026-05-03 21:14 | 39.02183 | -8.89454 | 10076 ft | 305 kts | 43° |
| 2026-05-03 21:15 | 39.03731 | -8.87493 | 10353 ft | 322 kts | 43° |
| 2026-05-03 21:15 | 39.05381 | -8.85407 | 10485 ft | 343 kts | 43° |
| 2026-05-03 21:15 | 39.07132 | -8.83191 | 10616 ft | 363 kts | 43° |
| 2026-05-03 21:15 | 39.08979 | -8.80846 | 10729 ft | 381 kts | 43° |
| 2026-05-03 21:16 | 39.10906 | -8.78394 | 10856 ft | 399 kts | 43° |
| 2026-05-03 21:16 | 39.12919 | -8.75829 | 11072 ft | 412 kts | 43° |
| 2026-05-03 21:16 | 39.14970 | -8.73217 | 11555 ft | 418 kts | 43° |
| 2026-05-03 21:16 | 39.17045 | -8.70568 | 12092 ft | 422 kts | 43° |
| 2026-05-03 21:17 | 39.19136 | -8.67896 | 12641 ft | 426 kts | 43° |
| 2026-05-03 21:17 | 39.20532 | -8.66113 | 12997 ft | 429 kts | 43° |
| 2026-05-03 21:17 | 39.23381 | -8.62471 | 13749 ft | 434 kts | 43° |
| 2026-05-03 21:17 | 39.25535 | -8.59712 | 14242 ft | 438 kts | 43° |
| 2026-05-03 21:18 | 39.27707 | -8.56925 | 14711 ft | 442 kts | 43° |
| 2026-05-03 21:18 | 39.29896 | -8.54120 | 15174 ft | 446 kts | 43° |
| 2026-05-03 21:18 | 39.32108 | -8.51285 | 15624 ft | 450 kts | 43° |
| 2026-05-03 21:18 | 39.34335 | -8.48427 | 16063 ft | 453 kts | 43° |
| 2026-05-03 21:19 | 39.36586 | -8.45539 | 16507 ft | 457 kts | 43° |
| 2026-05-03 21:19 | 39.38849 | -8.42632 | 16937 ft | 461 kts | 43° |
| 2026-05-03 21:19 | 39.41128 | -8.39699 | 17372 ft | 464 kts | 44° |
| 2026-05-03 21:19 | 39.43424 | -8.36738 | 17788 ft | 468 kts | 44° |
| 2026-05-03 21:20 | 39.45733 | -8.33755 | 18198 ft | 471 kts | 44° |
| 2026-05-03 21:20 | 39.48065 | -8.30740 | 18552 ft | 475 kts | 44° |
| 2026-05-03 21:20 | 39.50443 | -8.27666 | 18924 ft | 478 kts | 44° |
| 2026-05-03 21:20 | 39.52771 | -8.24655 | 19272 ft | 481 kts | 44° |
| 2026-05-03 21:21 | 39.55174 | -8.21539 | 19643 ft | 484 kts | 43° |
| 2026-05-03 21:21 | 39.57555 | -8.18446 | 20014 ft | 486 kts | 44° |
| 2026-05-03 21:21 | 39.59139 | -8.16388 | 20260 ft | 488 kts | 43° |
| 2026-05-03 21:21 | 39.62359 | -8.12207 | 20737 ft | 492 kts | 43° |
| 2026-05-03 21:22 | 39.63969 | -8.10116 | 20969 ft | 494 kts | 43° |
| 2026-05-03 21:22 | 39.66379 | -8.06980 | 21312 ft | 497 kts | 43° |
| 2026-05-03 21:22 | 39.68840 | -8.03769 | 21640 ft | 499 kts | 43° |
| 2026-05-03 21:22 | 39.71299 | -8.00558 | 21978 ft | 502 kts | 43° |
| 2026-05-03 21:23 | 39.73767 | -7.97337 | 22311 ft | 505 kts | 43° |
| 2026-05-03 21:23 | 39.76247 | -7.94097 | 22637 ft | 507 kts | 43° |
| 2026-05-03 21:23 | 39.78740 | -7.90834 | 22965 ft | 510 kts | 43° |
| 2026-05-03 21:23 | 39.81243 | -7.87554 | 23286 ft | 512 kts | 43° |
| 2026-05-03 21:24 | 39.83761 | -7.84253 | 23612 ft | 514 kts | 43° |
| 2026-05-03 21:24 | 39.86282 | -7.80947 | 23948 ft | 515 kts | 43° |
| 2026-05-03 21:24 | 39.88804 | -7.77630 | 24315 ft | 515 kts | 43° |
| 2026-05-03 21:24 | 39.91321 | -7.74308 | 24696 ft | 515 kts | 43° |
| 2026-05-03 21:25 | 39.93839 | -7.70982 | 25083 ft | 515 kts | 44° |
| 2026-05-03 21:25 | 39.96390 | -7.67610 | 25467 ft | 515 kts | 43° |
| 2026-05-03 21:25 | 39.98901 | -7.64285 | 25838 ft | 515 kts | 44° |
| 2026-05-03 21:25 | 40.01416 | -7.60957 | 26217 ft | 515 kts | 43° |
| 2026-05-03 21:26 | 40.03929 | -7.57635 | 26588 ft | 515 kts | 43° |
| 2026-05-03 21:26 | 40.06449 | -7.54302 | 26983 ft | 515 kts | 43° |
| 2026-05-03 21:26 | 40.08960 | -7.50976 | 27357 ft | 515 kts | 43° |
| 2026-05-03 21:26 | 40.11475 | -7.47643 | 27720 ft | 515 kts | 44° |
| 2026-05-03 21:27 | 40.13986 | -7.44308 | 28085 ft | 515 kts | 44° |
| 2026-05-03 21:27 | 40.16495 | -7.40968 | 28469 ft | 515 kts | 44° |
| 2026-05-03 21:27 | 40.19000 | -7.37624 | 28833 ft | 515 kts | 44° |
| 2026-05-03 21:27 | 40.21506 | -7.34277 | 29201 ft | 515 kts | 44° |
| 2026-05-03 21:28 | 40.24016 | -7.30925 | 29572 ft | 515 kts | 44° |
| 2026-05-03 21:28 | 40.26520 | -7.27574 | 29950 ft | 515 kts | 44° |
| 2026-05-03 21:28 | 40.29026 | -7.24220 | 30294 ft | 515 kts | 44° |
| 2026-05-03 21:28 | 40.31528 | -7.20864 | 30582 ft | 515 kts | 44° |
| 2026-05-03 21:29 | 40.34029 | -7.17507 | 30877 ft | 516 kts | 44° |
| 2026-05-03 21:29 | 40.36539 | -7.14138 | 31165 ft | 516 kts | 44° |
| 2026-05-03 21:29 | 40.39051 | -7.10766 | 31453 ft | 516 kts | 44° |
| 2026-05-03 21:29 | 40.41554 | -7.07402 | 31739 ft | 516 kts | 44° |
| 2026-05-03 21:30 | 40.44067 | -7.04019 | 32021 ft | 516 kts | 44° |
| 2026-05-03 21:30 | 40.46571 | -7.00642 | 32308 ft | 517 kts | 44° |
| 2026-05-03 21:30 | 40.49073 | -6.97257 | 32592 ft | 517 kts | 44° |
| 2026-05-03 21:30 | 40.51572 | -6.93869 | 32857 ft | 517 kts | 44° |
| 2026-05-03 21:31 | 40.54078 | -6.90474 | 33129 ft | 517 kts | 44° |
| 2026-05-03 21:31 | 40.56588 | -6.87077 | 33394 ft | 517 kts | 44° |
| 2026-05-03 21:31 | 40.59091 | -6.83682 | 33647 ft | 517 kts | 44° |
| 2026-05-03 21:31 | 40.61592 | -6.80284 | 33909 ft | 518 kts | 44° |
| 2026-05-03 21:32 | 40.64101 | -6.76873 | 34022 ft | 520 kts | 44° |
| 2026-05-03 21:32 | 40.66661 | -6.73392 | 34031 ft | 524 kts | 44° |
| 2026-05-03 21:32 | 40.71733 | -6.66470 | 34037 ft | 526 kts | 45° |
| 2026-05-03 21:33 | 40.76785 | -6.59565 | 34033 ft | 526 kts | 44° |
| 2026-05-03 21:33 | 40.81898 | -6.52560 | 34032 ft | 526 kts | 45° |
| 2026-05-03 21:34 | 40.86964 | -6.45591 | 34028 ft | 526 kts | 45° |
| 2026-05-03 21:34 | 40.92027 | -6.38606 | 34030 ft | 526 kts | 45° |
| 2026-05-03 21:35 | 40.97099 | -6.31610 | 34034 ft | 527 kts | 45° |
| 2026-05-03 21:35 | 41.02264 | -6.24744 | 34038 ft | 526 kts | 41° |
| 2026-05-03 21:36 | 41.07715 | -6.18308 | 34035 ft | 525 kts | 39° |
| 2026-05-03 21:36 | 41.13262 | -6.11967 | 34040 ft | 526 kts | 39° |
| 2026-05-03 21:37 | 41.18719 | -6.05520 | 34039 ft | 526 kts | 40° |
| 2026-05-03 21:37 | 41.24120 | -5.98969 | 34040 ft | 526 kts | 41° |
| 2026-05-03 21:38 | 41.29520 | -5.92417 | 34040 ft | 525 kts | 40° |
| 2026-05-03 21:38 | 41.34931 | -5.85890 | 34032 ft | 525 kts | 40° |
| 2026-05-03 21:39 | 41.40335 | -5.79368 | 34029 ft | 525 kts | 40° |
| 2026-05-03 21:39 | 41.45747 | -5.72824 | 34027 ft | 525 kts | 41° |
| 2026-05-03 21:40 | 41.51025 | -5.66086 | 34020 ft | 526 kts | 49° |
| 2026-05-03 21:40 | 41.55028 | -5.57896 | 34013 ft | 523 kts | 67° |
| 2026-05-03 21:41 | 41.57987 | -5.49022 | 34018 ft | 523 kts | 68° |
| 2026-05-03 21:41 | 41.60950 | -5.40145 | 34025 ft | 523 kts | 68° |
| 2026-05-03 21:42 | 41.62417 | -5.35734 | 34406 ft | 517 kts | 68° |
| 2026-05-03 21:42 | 41.63877 | -5.31337 | 34744 ft | 514 kts | 68° |
| 2026-05-03 21:42 | 41.65318 | -5.26981 | 35013 ft | 512 kts | 68° |
| 2026-05-03 21:42 | 41.66749 | -5.22633 | 35262 ft | 511 kts | 68° |
| 2026-05-03 21:43 | 41.68177 | -5.18276 | 35499 ft | 510 kts | 68° |
| 2026-05-03 21:43 | 41.69595 | -5.13940 | 35717 ft | 510 kts | 68° |
| 2026-05-03 21:43 | 41.71021 | -5.09582 | 35930 ft | 510 kts | 68° |
| 2026-05-03 21:43 | 41.72443 | -5.05238 | 36004 ft | 510 kts | 68° |
| 2026-05-03 21:44 | 41.75287 | -4.96548 | 36004 ft | 509 kts | 68° |
| 2026-05-03 21:44 | 41.78117 | -4.87862 | 36002 ft | 509 kts | 68° |
| 2026-05-03 21:45 | 41.80941 | -4.79160 | 35998 ft | 509 kts | 68° |
| 2026-05-03 21:45 | 41.83753 | -4.70458 | 35996 ft | 509 kts | 68° |
| 2026-05-03 21:46 | 41.86554 | -4.61752 | 35994 ft | 509 kts | 68° |
| 2026-05-03 21:46 | 41.89362 | -4.53019 | 35988 ft | 509 kts | 68° |
| 2026-05-03 21:47 | 41.92163 | -4.44284 | 35994 ft | 509 kts | 68° |
| 2026-05-03 21:47 | 41.94959 | -4.35541 | 35991 ft | 509 kts | 68° |
| 2026-05-03 21:48 | 41.97745 | -4.26786 | 35993 ft | 509 kts | 68° |
| 2026-05-03 21:48 | 42.00515 | -4.18027 | 35999 ft | 509 kts | 68° |
| 2026-05-03 21:49 | 42.03312 | -4.09205 | 35991 ft | 509 kts | 68° |
| 2026-05-03 21:49 | 42.06286 | -4.00570 | 35996 ft | 509 kts | 65° |
| 2026-05-03 21:50 | 42.09406 | -3.92016 | 36003 ft | 509 kts | 65° |
| 2026-05-03 21:50 | 42.12490 | -3.83433 | 36004 ft | 508 kts | 66° |
| 2026-05-03 21:51 | 42.15495 | -3.74821 | 36011 ft | 508 kts | 66° |
| 2026-05-03 21:51 | 42.18483 | -3.66198 | 36014 ft | 507 kts | 66° |
| 2026-05-03 21:52 | 42.21479 | -3.57578 | 36016 ft | 507 kts | 66° |
| 2026-05-03 21:52 | 42.24478 | -3.48972 | 36018 ft | 507 kts | 66° |
| 2026-05-03 21:53 | 42.27457 | -3.40365 | 36015 ft | 506 kts | 66° |
| 2026-05-03 21:53 | 42.30422 | -3.31743 | 36011 ft | 506 kts | 66° |
| 2026-05-03 21:54 | 42.33384 | -3.23124 | 36006 ft | 505 kts | 66° |
| 2026-05-03 21:54 | 42.36338 | -3.14507 | 36001 ft | 505 kts | 66° |
| 2026-05-03 21:55 | 42.38808 | -3.07278 | 35998 ft | 505 kts | 67° |
| 2026-05-03 21:55 | 42.41747 | -2.98664 | 35998 ft | 504 kts | 67° |
| 2026-05-03 21:56 | 42.44436 | -2.89923 | 35989 ft | 501 kts | 77° |
| 2026-05-03 21:56 | 42.45449 | -2.80699 | 35988 ft | 493 kts | 93° |
| 2026-05-03 21:57 | 42.45575 | -2.71421 | 35992 ft | 493 kts | 93° |
| 2026-05-03 21:57 | 42.45707 | -2.62142 | 35991 ft | 493 kts | 93° |
| 2026-05-03 21:58 | 42.45826 | -2.52862 | 35994 ft | 493 kts | 93° |
| 2026-05-03 21:58 | 42.45934 | -2.43589 | 35994 ft | 492 kts | 93° |
| 2026-05-03 21:59 | 42.46071 | -2.34317 | 35995 ft | 494 kts | 89° |
| 2026-05-03 21:59 | 42.47327 | -2.25127 | 35995 ft | 498 kts | 80° |
| 2026-05-03 22:00 | 42.48863 | -2.15968 | 35997 ft | 498 kts | 80° |
| 2026-05-03 22:00 | 42.50387 | -2.06752 | 35996 ft | 498 kts | 80° |
| 2026-05-03 22:01 | 42.51888 | -1.97577 | 35992 ft | 498 kts | 81° |
| 2026-05-03 22:01 | 42.53384 | -1.88422 | 35985 ft | 497 kts | 81° |
| 2026-05-03 22:02 | 42.54881 | -1.79266 | 35993 ft | 497 kts | 81° |
| 2026-05-03 22:02 | 42.56366 | -1.70093 | 35993 ft | 498 kts | 81° |
| 2026-05-03 22:03 | 42.57840 | -1.60929 | 35992 ft | 498 kts | 81° |
| 2026-05-03 22:03 | 42.59314 | -1.51737 | 35999 ft | 499 kts | 81° |
| 2026-05-03 22:04 | 42.60783 | -1.42533 | 36000 ft | 499 kts | 81° |
| 2026-05-03 22:04 | 42.62241 | -1.33318 | 36007 ft | 500 kts | 81° |
| 2026-05-03 22:05 | 42.63697 | -1.24077 | 36010 ft | 501 kts | 81° |
| 2026-05-03 22:05 | 42.65158 | -1.14812 | 36015 ft | 501 kts | 81° |
| 2026-05-03 22:06 | 42.66611 | -1.05550 | 36021 ft | 501 kts | 81° |
| 2026-05-03 22:06 | 42.68046 | -0.96286 | 36024 ft | 501 kts | 81° |
| 2026-05-03 22:07 | 42.69471 | -0.87013 | 36020 ft | 501 kts | 81° |
| 2026-05-03 22:07 | 42.70907 | -0.77685 | 36026 ft | 501 kts | 81° |
| 2026-05-03 22:08 | 42.72320 | -0.68479 | 36026 ft | 500 kts | 81° |
| 2026-05-03 22:08 | 42.73723 | -0.59156 | 36026 ft | 499 kts | 81° |
| 2026-05-03 22:09 | 42.75117 | -0.49905 | 36031 ft | 499 kts | 81° |
| 2026-05-03 22:10 | 42.77190 | -0.36064 | 36030 ft | 497 kts | 81° |
| 2026-05-03 22:10 | 42.78556 | -0.26850 | 36034 ft | 497 kts | 79° |
| 2026-05-03 22:11 | 42.80977 | -0.18034 | 36030 ft | 499 kts | 61° |
| 2026-05-03 22:11 | 42.85066 | -0.10416 | 36023 ft | 499 kts | 50° |
| 2026-05-03 22:12 | 42.89473 | -0.03096 | 36011 ft | 499 kts | 50° |
| 2026-05-03 22:12 | 42.93861 | 0.04247 | 36003 ft | 500 kts | 51° |
| 2026-05-03 22:13 | 42.98253 | 0.11606 | 35997 ft | 500 kts | 51° |
| 2026-05-03 22:13 | 43.02651 | 0.18971 | 35996 ft | 501 kts | 51° |
| 2026-05-03 22:14 | 43.07046 | 0.26362 | 35993 ft | 501 kts | 51° |
| 2026-05-03 22:14 | 43.11437 | 0.33757 | 35987 ft | 501 kts | 51° |
| 2026-05-03 22:15 | 43.15822 | 0.41173 | 35989 ft | 501 kts | 51° |
| 2026-05-03 22:15 | 43.20229 | 0.48653 | 35981 ft | 501 kts | 51° |
| 2026-05-03 22:16 | 43.24615 | 0.56090 | 35986 ft | 501 kts | 51° |
| 2026-05-03 22:16 | 43.28979 | 0.63532 | 35986 ft | 501 kts | 51° |
| 2026-05-03 22:17 | 43.33346 | 0.70975 | 35990 ft | 500 kts | 51° |
| 2026-05-03 22:17 | 43.37699 | 0.78427 | 35993 ft | 500 kts | 51° |
| 2026-05-03 22:18 | 43.42043 | 0.85883 | 35993 ft | 500 kts | 51° |
| 2026-05-03 22:18 | 43.46385 | 0.93353 | 35994 ft | 499 kts | 51° |
| 2026-05-03 22:19 | 43.50714 | 1.00824 | 35993 ft | 499 kts | 51° |
| 2026-05-03 22:19 | 43.55037 | 1.08296 | 35991 ft | 499 kts | 51° |
| 2026-05-03 22:20 | 43.59357 | 1.15782 | 35993 ft | 498 kts | 51° |
| 2026-05-03 22:20 | 43.63658 | 1.23268 | 35990 ft | 498 kts | 52° |
| 2026-05-03 22:21 | 43.67959 | 1.30752 | 35995 ft | 498 kts | 52° |
| 2026-05-03 22:21 | 43.72162 | 1.38356 | 35990 ft | 497 kts | 54° |
| 2026-05-03 22:22 | 43.76215 | 1.46093 | 35997 ft | 497 kts | 54° |
| 2026-05-03 22:22 | 43.80258 | 1.53826 | 35995 ft | 496 kts | 54° |
| 2026-05-03 22:23 | 43.84382 | 1.61589 | 35999 ft | 496 kts | 54° |
| 2026-05-03 22:23 | 43.88483 | 1.69275 | 36000 ft | 496 kts | 54° |
| 2026-05-03 22:24 | 43.92566 | 1.76986 | 36006 ft | 496 kts | 54° |
| 2026-05-03 22:24 | 43.96614 | 1.84722 | 36007 ft | 495 kts | 55° |
| 2026-05-03 22:25 | 44.00552 | 1.92568 | 36008 ft | 495 kts | 56° |
| 2026-05-03 22:25 | 44.04425 | 2.00464 | 36009 ft | 495 kts | 56° |
| 2026-05-03 22:26 | 44.08315 | 2.08360 | 36011 ft | 494 kts | 56° |
| 2026-05-03 22:26 | 44.12217 | 2.16226 | 36013 ft | 494 kts | 56° |
| 2026-05-03 22:27 | 44.16128 | 2.24111 | 36023 ft | 495 kts | 56° |
| 2026-05-03 22:27 | 44.20023 | 2.32008 | 36037 ft | 495 kts | 56° |
| 2026-05-03 22:28 | 44.23244 | 2.38589 | 36044 ft | 495 kts | 56° |
| 2026-05-03 22:28 | 44.27120 | 2.46515 | 36045 ft | 494 kts | 56° |
| 2026-05-03 22:29 | 44.31023 | 2.54489 | 36049 ft | 494 kts | 56° |
| 2026-05-03 22:29 | 44.34895 | 2.62426 | 36057 ft | 494 kts | 56° |
| 2026-05-03 22:30 | 44.38760 | 2.70379 | 36047 ft | 494 kts | 56° |
| 2026-05-03 22:30 | 44.42619 | 2.78337 | 36059 ft | 494 kts | 56° |
| 2026-05-03 22:31 | 44.46467 | 2.86293 | 36058 ft | 494 kts | 56° |
| 2026-05-03 22:31 | 44.50309 | 2.94251 | 36066 ft | 493 kts | 57° |
| 2026-05-03 22:32 | 44.54143 | 3.02238 | 36066 ft | 493 kts | 57° |
| 2026-05-03 22:32 | 44.57965 | 3.10226 | 36066 ft | 493 kts | 57° |
| 2026-05-03 22:33 | 44.61750 | 3.18257 | 36073 ft | 493 kts | 59° |
| 2026-05-03 22:33 | 44.65197 | 3.26569 | 36075 ft | 493 kts | 62° |
| 2026-05-03 22:34 | 44.68443 | 3.35043 | 36082 ft | 493 kts | 63° |
| 2026-05-03 22:34 | 44.71729 | 3.43491 | 36080 ft | 492 kts | 62° |
| 2026-05-03 22:35 | 44.75081 | 3.51880 | 36079 ft | 492 kts | 61° |
| 2026-05-03 22:35 | 44.78440 | 3.60273 | 36081 ft | 492 kts | 62° |
| 2026-05-03 22:36 | 44.81800 | 3.68734 | 36081 ft | 491 kts | 62° |
| 2026-05-03 22:36 | 44.85116 | 3.77146 | 36082 ft | 491 kts | 62° |
| 2026-05-03 22:37 | 44.88429 | 3.85564 | 36088 ft | 491 kts | 62° |
| 2026-05-03 22:37 | 44.91731 | 3.93989 | 36086 ft | 490 kts | 62° |
| 2026-05-03 22:37 | 44.93380 | 3.98200 | 36206 ft | 491 kts | 63° |
| 2026-05-03 22:38 | 44.95036 | 4.02434 | 36050 ft | 493 kts | 63° |
| 2026-05-03 22:38 | 44.98335 | 4.10890 | 36037 ft | 492 kts | 63° |
| 2026-05-03 22:39 | 45.01640 | 4.19387 | 36046 ft | 494 kts | 63° |
| 2026-05-03 22:39 | 45.04951 | 4.27914 | 36050 ft | 495 kts | 63° |
| 2026-05-03 22:40 | 45.08260 | 4.36472 | 36065 ft | 496 kts | 63° |
| 2026-05-03 22:40 | 45.11554 | 4.45054 | 36076 ft | 497 kts | 63° |
| 2026-05-03 22:41 | 45.14857 | 4.53650 | 36079 ft | 497 kts | 63° |
| 2026-05-03 22:41 | 45.18155 | 4.62259 | 36085 ft | 497 kts | 63° |
| 2026-05-03 22:42 | 45.21449 | 4.70888 | 36083 ft | 497 kts | 63° |
| 2026-05-03 22:42 | 45.24732 | 4.79519 | 36084 ft | 497 kts | 63° |
| 2026-05-03 22:43 | 45.28009 | 4.88166 | 36084 ft | 497 kts | 63° |
| 2026-05-03 22:43 | 45.31297 | 4.96879 | 36089 ft | 497 kts | 63° |
| 2026-05-03 22:44 | 45.34545 | 5.05495 | 36096 ft | 497 kts | 63° |
| 2026-05-03 22:44 | 45.37827 | 5.14223 | 36099 ft | 497 kts | 63° |
| 2026-05-03 22:45 | 45.41081 | 5.22900 | 36106 ft | 497 kts | 63° |
| 2026-05-03 22:45 | 45.44324 | 5.31585 | 36103 ft | 497 kts | 63° |
| 2026-05-03 22:46 | 45.47602 | 5.40252 | 36103 ft | 497 kts | 58° |
| 2026-05-03 22:46 | 45.51977 | 5.47825 | 36096 ft | 496 kts | 41° |
| 2026-05-03 22:47 | 45.57129 | 5.54373 | 36092 ft | 496 kts | 41° |
| 2026-05-03 22:47 | 45.62266 | 5.60930 | 36101 ft | 496 kts | 41° |
| 2026-05-03 22:48 | 45.67402 | 5.67525 | 36102 ft | 496 kts | 41° |
| 2026-05-03 22:48 | 45.72532 | 5.74136 | 36106 ft | 496 kts | 41° |
| 2026-05-03 22:49 | 45.77666 | 5.80738 | 36105 ft | 496 kts | 41° |
| 2026-05-03 22:49 | 45.82801 | 5.87331 | 36105 ft | 496 kts | 41° |
| 2026-05-03 22:50 | 45.87924 | 5.93932 | 36107 ft | 495 kts | 41° |
| 2026-05-03 22:50 | 45.93045 | 6.00558 | 36109 ft | 495 kts | 41° |
| 2026-05-03 22:51 | 45.97328 | 6.06116 | 36109 ft | 495 kts | 41° |
| 2026-05-03 22:51 | 46.02372 | 6.12678 | 36107 ft | 495 kts | 41° |
| 2026-05-03 22:52 | 46.07510 | 6.19376 | 36101 ft | 495 kts | 41° |
| 2026-05-03 22:52 | 46.12550 | 6.26137 | 36105 ft | 496 kts | 43° |
| 2026-05-03 22:53 | 46.17447 | 6.33148 | 36107 ft | 496 kts | 44° |
| 2026-05-03 22:53 | 46.22302 | 6.40216 | 36107 ft | 495 kts | 44° |
| 2026-05-03 22:54 | 46.23962 | 6.42617 | 36103 ft | 495 kts | 45° |
| 2026-05-03 22:54 | 46.28843 | 6.49646 | 36101 ft | 495 kts | 44° |
| 2026-05-03 22:55 | 46.33754 | 6.56601 | 36103 ft | 494 kts | 44° |
| 2026-05-03 22:55 | 46.38654 | 6.63599 | 36096 ft | 494 kts | 44° |
| 2026-05-03 22:56 | 46.43523 | 6.70629 | 36103 ft | 494 kts | 44° |
| 2026-05-03 22:56 | 46.48376 | 6.77665 | 36104 ft | 493 kts | 44° |
| 2026-05-03 22:57 | 46.53226 | 6.84705 | 36106 ft | 493 kts | 44° |
| 2026-05-03 22:57 | 46.57832 | 6.92065 | 36106 ft | 493 kts | 51° |
| 2026-05-03 22:58 | 46.62134 | 6.99807 | 36105 ft | 492 kts | 51° |
| 2026-05-03 22:58 | 46.66436 | 7.07558 | 36106 ft | 492 kts | 50° |
| 2026-05-03 22:59 | 46.70731 | 7.15330 | 36109 ft | 492 kts | 50° |
| 2026-05-03 22:59 | 46.75016 | 7.23107 | 35960 ft | 490 kts | 51° |
| 2026-05-03 22:59 | 46.77115 | 7.26922 | 36695 ft | 468 kts | 51° |
| 2026-05-03 23:00 | 46.79150 | 7.30630 | 36746 ft | 468 kts | 51° |
| 2026-05-03 23:00 | 46.81172 | 7.34322 | 36612 ft | 466 kts | 51° |
| 2026-05-03 23:00 | 46.82481 | 7.36793 | 36524 ft | 465 kts | 55° |
| 2026-05-03 23:00 | 46.84154 | 7.40834 | 36391 ft | 464 kts | 64° |
| 2026-05-03 23:01 | 46.85334 | 7.44948 | 36275 ft | 464 kts | 72° |
| 2026-05-03 23:01 | 46.86135 | 7.49511 | 36061 ft | 463 kts | 80° |
| 2026-05-03 23:01 | 46.86723 | 7.54142 | 36073 ft | 464 kts | 80° |
| 2026-05-03 23:02 | 46.87909 | 7.63409 | 36089 ft | 465 kts | 79° |
| 2026-05-03 23:02 | 46.89099 | 7.72692 | 36081 ft | 465 kts | 79° |
| 2026-05-03 23:03 | 46.90285 | 7.81986 | 36076 ft | 465 kts | 79° |
| 2026-05-03 23:03 | 46.91449 | 7.91180 | 36089 ft | 465 kts | 79° |
| 2026-05-03 23:04 | 46.92623 | 8.00495 | 36075 ft | 466 kts | 79° |
| 2026-05-03 23:04 | 46.93791 | 8.09884 | 36090 ft | 467 kts | 79° |
| 2026-05-03 23:05 | 46.94884 | 8.18747 | 36092 ft | 467 kts | 79° |
| 2026-05-03 23:05 | 46.96035 | 8.28098 | 36091 ft | 467 kts | 79° |
| 2026-05-03 23:06 | 46.97180 | 8.37463 | 36102 ft | 468 kts | 79° |
| 2026-05-03 23:06 | 46.98316 | 8.46847 | 36107 ft | 468 kts | 79° |
| 2026-05-03 23:07 | 46.99447 | 8.56224 | 36099 ft | 468 kts | 79° |
| 2026-05-03 23:07 | 47.00571 | 8.65632 | 36100 ft | 469 kts | 79° |
| 2026-05-03 23:08 | 47.01690 | 8.75042 | 36105 ft | 469 kts | 79° |
| 2026-05-03 23:08 | 47.02798 | 8.84438 | 36116 ft | 469 kts | 79° |
| 2026-05-03 23:09 | 47.03904 | 8.93867 | 36116 ft | 469 kts | 79° |
| 2026-05-03 23:09 | 47.04993 | 9.03288 | 36111 ft | 469 kts | 80° |
| 2026-05-03 23:10 | 47.06079 | 9.12714 | 36109 ft | 469 kts | 79° |
| 2026-05-03 23:10 | 47.07163 | 9.22138 | 36104 ft | 468 kts | 79° |
| 2026-05-03 23:11 | 47.08238 | 9.31569 | 36101 ft | 468 kts | 79° |
| 2026-05-03 23:11 | 47.09296 | 9.40987 | 36104 ft | 468 kts | 80° |
| 2026-05-03 23:12 | 47.10346 | 9.50415 | 36096 ft | 468 kts | 80° |
| 2026-05-03 23:12 | 47.11391 | 9.59840 | 35946 ft | 467 kts | 79° |
| 2026-05-03 23:12 | 47.11909 | 9.64544 | 35819 ft | 467 kts | 79° |
| 2026-05-03 23:13 | 47.12426 | 9.69266 | 35696 ft | 468 kts | 79° |
| 2026-05-03 23:13 | 47.12946 | 9.74047 | 35572 ft | 468 kts | 80° |
| 2026-05-03 23:13 | 47.13461 | 9.78777 | 35447 ft | 469 kts | 79° |
| 2026-05-03 23:13 | 47.13970 | 9.83443 | 35324 ft | 469 kts | 79° |
| 2026-05-03 23:14 | 47.14491 | 9.88241 | 35162 ft | 470 kts | 79° |
| 2026-05-03 23:14 | 47.15000 | 9.92960 | 35043 ft | 469 kts | 79° |
| 2026-05-03 23:14 | 47.15510 | 9.97723 | 35085 ft | 471 kts | 79° |
| 2026-05-03 23:15 | 47.16531 | 10.07226 | 35087 ft | 471 kts | 79° |
| 2026-05-03 23:15 | 47.17548 | 10.16722 | 35089 ft | 470 kts | 79° |
| 2026-05-03 23:16 | 47.18551 | 10.26227 | 35087 ft | 470 kts | 79° |
| 2026-05-03 23:16 | 47.19543 | 10.35726 | 35096 ft | 470 kts | 80° |
| 2026-05-03 23:17 | 47.20509 | 10.45014 | 35102 ft | 471 kts | 80° |
| 2026-05-03 23:17 | 47.21491 | 10.54536 | 35109 ft | 471 kts | 80° |
| 2026-05-03 23:18 | 47.22466 | 10.64060 | 35110 ft | 471 kts | 80° |
| 2026-05-03 23:18 | 47.23436 | 10.73594 | 35119 ft | 471 kts | 80° |
| 2026-05-03 23:19 | 47.24393 | 10.83125 | 35118 ft | 471 kts | 81° |
| 2026-05-03 23:19 | 47.25342 | 10.92667 | 35109 ft | 471 kts | 81° |
| 2026-05-03 23:20 | 47.26283 | 11.02208 | 35100 ft | 471 kts | 81° |
| 2026-05-03 23:20 | 47.27219 | 11.11738 | 35075 ft | 470 kts | 81° |
| 2026-05-03 23:21 | 47.28143 | 11.21273 | 35078 ft | 470 kts | 81° |
| 2026-05-03 23:21 | 47.29070 | 11.30871 | 35078 ft | 470 kts | 81° |
| 2026-05-03 23:22 | 47.30423 | 11.45176 | 35077 ft | 470 kts | 81° |
| 2026-05-03 23:22 | 47.31322 | 11.54717 | 35079 ft | 470 kts | 81° |
| 2026-05-03 23:23 | 47.32217 | 11.64276 | 35080 ft | 470 kts | 81° |
| 2026-05-03 23:23 | 47.33097 | 11.73820 | 35100 ft | 470 kts | 81° |
| 2026-05-03 23:24 | 47.33968 | 11.83359 | 35103 ft | 469 kts | 82° |
| 2026-05-03 23:24 | 47.34876 | 11.92893 | 35095 ft | 469 kts | 77° |
| 2026-05-03 23:25 | 47.36388 | 12.02232 | 35087 ft | 468 kts | 75° |
| 2026-05-03 23:25 | 47.37913 | 12.11567 | 35085 ft | 468 kts | 75° |
| 2026-05-03 23:26 | 47.39423 | 12.20901 | 35089 ft | 468 kts | 76° |
| 2026-05-03 23:26 | 47.40931 | 12.30256 | 35083 ft | 468 kts | 76° |
| 2026-05-03 23:27 | 47.42427 | 12.39581 | 35077 ft | 467 kts | 76° |
| 2026-05-03 23:27 | 47.43912 | 12.48945 | 35068 ft | 467 kts | 76° |
| 2026-05-03 23:28 | 47.45390 | 12.58354 | 35058 ft | 467 kts | 76° |
| 2026-05-03 23:28 | 47.46864 | 12.67745 | 35037 ft | 470 kts | 77° |
| 2026-05-03 23:29 | 47.48337 | 12.77191 | 35023 ft | 472 kts | 77° |
| 2026-05-03 23:29 | 47.49800 | 12.86583 | 35027 ft | 473 kts | 77° |
| 2026-05-03 23:30 | 47.51283 | 12.96165 | 35031 ft | 474 kts | 77° |
| 2026-05-03 23:30 | 47.52740 | 13.05670 | 35038 ft | 474 kts | 77° |
| 2026-05-03 23:31 | 47.54194 | 13.15182 | 35044 ft | 474 kts | 77° |
| 2026-05-03 23:31 | 47.55644 | 13.24703 | 35051 ft | 474 kts | 77° |
| 2026-05-03 23:32 | 47.57077 | 13.34218 | 35057 ft | 473 kts | 77° |
| 2026-05-03 23:32 | 47.58496 | 13.43729 | 35054 ft | 473 kts | 77° |
| 2026-05-03 23:33 | 47.59911 | 13.53234 | 35062 ft | 472 kts | 77° |
| 2026-05-03 23:33 | 47.61316 | 13.62722 | 35058 ft | 471 kts | 77° |
| 2026-05-03 23:34 | 47.62486 | 13.70668 | 35053 ft | 470 kts | 77° |
| 2026-05-03 23:34 | 47.63876 | 13.80125 | 35046 ft | 470 kts | 77° |
| 2026-05-03 23:35 | 47.65258 | 13.89597 | 35042 ft | 469 kts | 78° |
| 2026-05-03 23:35 | 47.66539 | 13.98474 | 35036 ft | 468 kts | 78° |
| 2026-05-03 23:36 | 47.67905 | 14.07991 | 35043 ft | 468 kts | 78° |
| 2026-05-03 23:36 | 47.69252 | 14.17437 | 35038 ft | 468 kts | 78° |
| 2026-05-03 23:37 | 47.70595 | 14.26893 | 35033 ft | 468 kts | 78° |
| 2026-05-03 23:37 | 47.71924 | 14.36356 | 35028 ft | 468 kts | 78° |
| 2026-05-03 23:38 | 47.73249 | 14.45815 | 35034 ft | 468 kts | 78° |
| 2026-05-03 23:38 | 47.74574 | 14.55270 | 35029 ft | 467 kts | 78° |
| 2026-05-03 23:39 | 47.75888 | 14.64725 | 35040 ft | 467 kts | 78° |
| 2026-05-03 23:39 | 47.77182 | 14.74170 | 35041 ft | 466 kts | 78° |
| 2026-05-03 23:40 | 47.78470 | 14.83618 | 35043 ft | 466 kts | 77° |
| 2026-05-03 23:40 | 47.79751 | 14.93048 | 35042 ft | 466 kts | 77° |
| 2026-05-03 23:41 | 47.81031 | 15.02514 | 35040 ft | 466 kts | 77° |
| 2026-05-03 23:41 | 47.82293 | 15.11983 | 35038 ft | 467 kts | 77° |
| 2026-05-03 23:42 | 47.83554 | 15.21529 | 35040 ft | 467 kts | 77° |
| 2026-05-03 23:42 | 47.84802 | 15.30946 | 35046 ft | 467 kts | 77° |
| 2026-05-03 23:43 | 47.86061 | 15.40474 | 35044 ft | 467 kts | 77° |
| 2026-05-03 23:43 | 47.87301 | 15.49978 | 35047 ft | 466 kts | 77° |
| 2026-05-03 23:44 | 47.88524 | 15.59454 | 35051 ft | 466 kts | 77° |
| 2026-05-03 23:44 | 47.89741 | 15.68939 | 35051 ft | 466 kts | 77° |
| 2026-05-03 23:45 | 47.90953 | 15.78416 | 35058 ft | 465 kts | 77° |
| 2026-05-03 23:45 | 47.92162 | 15.87877 | 35057 ft | 465 kts | 77° |
| 2026-05-03 23:46 | 47.93339 | 15.97271 | 35057 ft | 464 kts | 78° |
| 2026-05-03 23:46 | 47.94510 | 16.06716 | 35054 ft | 464 kts | 77° |
| 2026-05-03 23:47 | 47.95682 | 16.16168 | 35058 ft | 463 kts | 78° |
| 2026-05-03 23:47 | 47.96850 | 16.25617 | 35063 ft | 463 kts | 78° |
| 2026-05-03 23:48 | 47.97953 | 16.34586 | 35068 ft | 463 kts | 78° |
| 2026-05-03 23:48 | 47.99111 | 16.44030 | 35074 ft | 462 kts | 78° |
| 2026-05-03 23:49 | 48.00265 | 16.53531 | 35077 ft | 462 kts | 78° |
| 2026-05-03 23:49 | 48.01392 | 16.62989 | 35075 ft | 462 kts | 78° |
| 2026-05-03 23:50 | 48.02322 | 16.70824 | 35078 ft | 462 kts | 78° |
| 2026-05-03 23:50 | 48.03630 | 16.81860 | 35075 ft | 461 kts | 78° |
| 2026-05-03 23:51 | 48.04748 | 16.91308 | 35082 ft | 461 kts | 78° |
| 2026-05-03 23:51 | 48.05846 | 17.00756 | 35099 ft | 461 kts | 78° |
| 2026-05-03 23:52 | 48.07115 | 17.10138 | 35100 ft | 459 kts | 70° |
| 2026-05-03 23:52 | 48.09296 | 17.19082 | 35101 ft | 458 kts | 68° |
| 2026-05-03 23:53 | 48.10759 | 17.28335 | 35095 ft | 462 kts | 85° |
| 2026-05-03 23:53 | 48.10176 | 17.37919 | 35100 ft | 466 kts | 103° |
| 2026-05-03 23:54 | 48.08197 | 17.47158 | 34854 ft | 467 kts | 106° |
| 2026-05-03 23:54 | 48.07193 | 17.51738 | 34614 ft | 462 kts | 106° |
| 2026-05-03 23:54 | 48.06192 | 17.56301 | 34372 ft | 459 kts | 106° |
| 2026-05-03 23:55 | 48.05201 | 17.60826 | 34089 ft | 458 kts | 106° |
| 2026-05-03 23:55 | 48.04205 | 17.65378 | 33155 ft | 464 kts | 106° |
| 2026-05-03 23:55 | 48.03196 | 17.69971 | 32320 ft | 467 kts | 107° |
| 2026-05-03 23:55 | 48.02178 | 17.74588 | 31403 ft | 468 kts | 107° |
| 2026-05-03 23:56 | 48.01146 | 17.79248 | 30489 ft | 468 kts | 107° |
| 2026-05-03 23:56 | 48.00132 | 17.83798 | 29472 ft | 468 kts | 107° |
| 2026-05-03 23:56 | 47.99095 | 17.88427 | 29026 ft | 456 kts | 107° |
| 2026-05-03 23:56 | 47.98113 | 17.92803 | 28435 ft | 447 kts | 107° |
| 2026-05-03 23:57 | 47.97124 | 17.97215 | 27854 ft | 438 kts | 107° |
| 2026-05-03 23:57 | 47.96170 | 18.01472 | 27300 ft | 429 kts | 107° |
| 2026-05-03 23:57 | 47.95229 | 18.05665 | 26745 ft | 422 kts | 107° |
| 2026-05-03 23:57 | 47.94303 | 18.09774 | 26214 ft | 414 kts | 107° |
| 2026-05-03 23:58 | 47.93391 | 18.13814 | 25671 ft | 408 kts | 107° |
| 2026-05-03 23:58 | 47.92492 | 18.17797 | 25147 ft | 402 kts | 107° |
| 2026-05-03 23:58 | 47.91605 | 18.21722 | 24637 ft | 398 kts | 108° |
| 2026-05-03 23:58 | 47.90724 | 18.25606 | 24131 ft | 394 kts | 108° |
| 2026-05-03 23:59 | 47.89848 | 18.29446 | 23619 ft | 390 kts | 108° |
| 2026-05-03 23:59 | 47.88976 | 18.33254 | 23091 ft | 386 kts | 108° |
| 2026-05-03 23:59 | 47.88112 | 18.37032 | 22616 ft | 384 kts | 108° |
| 2026-05-03 23:59 | 47.87259 | 18.40770 | 22155 ft | 381 kts | 108° |
| 2026-05-04 00:00 | 47.86255 | 18.44424 | 21693 ft | 380 kts | 117° |
| 2026-05-04 00:00 | 47.84843 | 18.47720 | 21251 ft | 378 kts | 127° |
| 2026-05-04 00:00 | 47.83057 | 18.50582 | 20805 ft | 376 kts | 137° |
| 2026-05-04 00:00 | 47.80981 | 18.52913 | 20352 ft | 374 kts | 147° |
| 2026-05-04 00:01 | 47.78793 | 18.54996 | 19915 ft | 372 kts | 146° |
| 2026-05-04 00:01 | 47.76625 | 18.57063 | 19465 ft | 370 kts | 146° |
| 2026-05-04 00:01 | 47.74469 | 18.59118 | 19023 ft | 367 kts | 146° |
| 2026-05-04 00:01 | 47.72323 | 18.61164 | 18571 ft | 366 kts | 146° |
| 2026-05-04 00:02 | 47.70191 | 18.63212 | 18048 ft | 364 kts | 144° |
| 2026-05-04 00:02 | 47.68247 | 18.65583 | 17600 ft | 360 kts | 134° |
| 2026-05-04 00:02 | 47.66563 | 18.68305 | 17139 ft | 356 kts | 130° |
| 2026-05-04 00:02 | 47.64918 | 18.71026 | 16685 ft | 353 kts | 130° |
| 2026-05-04 00:03 | 47.63277 | 18.73721 | 16212 ft | 350 kts | 131° |
| 2026-05-04 00:03 | 47.61652 | 18.76386 | 15764 ft | 347 kts | 131° |
| 2026-05-04 00:03 | 47.60036 | 18.79035 | 15291 ft | 346 kts | 131° |
| 2026-05-04 00:03 | 47.58430 | 18.81671 | 14825 ft | 344 kts | 131° |
| 2026-05-04 00:04 | 47.56812 | 18.84322 | 14352 ft | 342 kts | 131° |
| 2026-05-04 00:04 | 47.55222 | 18.86923 | 13864 ft | 341 kts | 131° |
| 2026-05-04 00:04 | 47.53634 | 18.89521 | 13376 ft | 339 kts | 131° |
| 2026-05-04 00:04 | 47.52056 | 18.92098 | 12913 ft | 336 kts | 131° |
| 2026-05-04 00:05 | 47.50492 | 18.94649 | 12445 ft | 334 kts | 131° |
| 2026-05-04 00:05 | 47.48942 | 18.97179 | 11974 ft | 332 kts | 131° |
| 2026-05-04 00:05 | 47.47397 | 18.99700 | 11518 ft | 330 kts | 131° |
| 2026-05-04 00:05 | 47.45861 | 19.02204 | 11054 ft | 328 kts | 131° |
| 2026-05-04 00:06 | 47.44336 | 19.04690 | 10752 ft | 322 kts | 131° |
| 2026-05-04 00:06 | 47.42858 | 19.07093 | 10633 ft | 310 kts | 131° |
| 2026-05-04 00:06 | 47.41433 | 19.09404 | 10493 ft | 299 kts | 131° |
| 2026-05-04 00:06 | 47.40511 | 19.10899 | 10329 ft | 295 kts | 131° |
| 2026-05-04 00:07 | 47.39141 | 19.13116 | 10257 ft | 292 kts | 131° |
| 2026-05-04 00:07 | 47.37773 | 19.15329 | 10075 ft | 292 kts | 131° |
| 2026-05-04 00:07 | 47.36412 | 19.17530 | 9922 ft | 288 kts | 131° |
| 2026-05-04 00:07 | 47.35086 | 19.19671 | 9792 ft | 278 kts | 131° |
| 2026-05-04 00:08 | 47.33799 | 19.21753 | 9543 ft | 273 kts | 131° |
| 2026-05-04 00:08 | 47.32527 | 19.23813 | 9233 ft | 270 kts | 131° |
| 2026-05-04 00:08 | 47.31268 | 19.25849 | 8912 ft | 268 kts | 131° |
| 2026-05-04 00:08 | 47.30012 | 19.27875 | 8595 ft | 267 kts | 131° |
| 2026-05-04 00:09 | 47.28765 | 19.29881 | 8295 ft | 265 kts | 132° |
| 2026-05-04 00:09 | 47.27514 | 19.31894 | 7992 ft | 263 kts | 132° |
| 2026-05-04 00:09 | 47.26297 | 19.33852 | 7687 ft | 261 kts | 132° |
| 2026-05-04 00:09 | 47.25058 | 19.35846 | 7380 ft | 259 kts | 133° |
| 2026-05-04 00:10 | 47.23967 | 19.37932 | 7078 ft | 257 kts | 114° |
| 2026-05-04 00:10 | 47.23660 | 19.40484 | 6771 ft | 256 kts | 83° |
| 2026-05-04 00:10 | 47.24310 | 19.42951 | 6150 ft | 269 kts | 51° |
| 2026-05-04 00:10 | 47.25680 | 19.44924 | 5414 ft | 281 kts | 43° |
| 2026-05-04 00:11 | 47.27124 | 19.46846 | 4690 ft | 278 kts | 43° |
| 2026-05-04 00:11 | 47.28669 | 19.48417 | 4217 ft | 265 kts | 18° |
| 2026-05-04 00:11 | 47.30426 | 19.48500 | 3848 ft | 247 kts | 339° |
| 2026-05-04 00:11 | 47.31825 | 19.47201 | 3576 ft | 236 kts | 315° |
| 2026-05-04 00:12 | 47.32893 | 19.45409 | 3241 ft | 230 kts | 299° |
| 2026-05-04 00:12 | 47.33665 | 19.43414 | 2966 ft | 217 kts | 303° |
| 2026-05-04 00:12 | 47.34589 | 19.41781 | 2717 ft | 197 kts | 309° |
| 2026-05-04 00:12 | 47.35453 | 19.40399 | 2456 ft | 171 kts | 309° |
| 2026-05-04 00:13 | 47.36228 | 19.39157 | 2232 ft | 160 kts | 308° |
| 2026-05-04 00:13 | 47.36972 | 19.37961 | 2017 ft | 156 kts | 308° |
| 2026-05-04 00:13 | 47.37702 | 19.36786 | 1810 ft | 155 kts | 308° |
| 2026-05-04 00:13 | 47.38425 | 19.35622 | 1604 ft | 153 kts | 308° |
| 2026-05-04 00:14 | 47.39146 | 19.34462 | 1395 ft | 152 kts | 308° |
| 2026-05-04 00:14 | 47.39844 | 19.33337 | 1182 ft | 150 kts | 310° |
| 2026-05-04 00:14 | 47.40545 | 19.32208 | 982 ft | 148 kts | 311° |
| 2026-05-04 00:14 | 47.41231 | 19.31091 | 756 ft | 146 kts | 311° |
| 2026-05-04 00:15 | 47.41913 | 19.29994 | 597 ft | 145 kts | 313° |
| 2026-05-04 00:15 | 47.42600 | 19.28908 | 466 ft | 144 kts | 308° |
| 2026-05-04 00:15 | 47.43209 | 19.27911 | 462 ft | 113 kts | 312° |
| 2026-05-04 00:15 | 47.43616 | 19.27255 | 474 ft | 34 kts | 312° |
| 2026-05-04 00:16 | 47.43724 | 19.27006 | 471 ft | 27 kts | 291° |
| 2026-05-04 00:16 | 47.43768 | 19.26761 | 463 ft | 25 kts | 283° |
| 2026-05-04 00:16 | 47.43804 | 19.26510 | 459 ft | 22 kts | 283° |
| 2026-05-04 00:16 | 47.43771 | 19.26423 | 458 ft | 11 kts | 197° |
| 2026-05-04 00:17 | 47.43702 | 19.26356 | 458 ft | 12 kts | 208° |
| 2026-05-04 00:17 | 47.43630 | 19.26407 | 458 ft | 13 kts | 133° |
| 2026-05-04 00:17 | 47.43566 | 19.26509 | 458 ft | 14 kts | 132° |
| 2026-05-04 00:17 | 47.43496 | 19.26623 | 458 ft | 16 kts | 133° |
| 2026-05-04 00:18 | 47.43421 | 19.26744 | 458 ft | 13 kts | 132° |
| 2026-05-04 00:18 | 47.43359 | 19.26796 | 458 ft | 11 kts | 182° |
| 2026-05-04 00:18 | 47.43319 | 19.26763 | 457 ft | 0 kts | 222° |